Time;durP1;ratioP1;P1;durP2;ratioP2;P2;SDS_P1;SDS_P2;PMS_P1;PMS_P2;Temp;Humidity;BMP_temperature;BMP_pressure;BME280_temperature;BME280_humidity;BME280_pressure;Samples;Min_cycle;Max_cycle;Signal;HPM_P1;HPM_P2
2021/07/26 00:02:18;;;;;;;5.80;5.30;;;24.80;41.40;;;;;;5052912;28;20210;-64
2021/07/26 00:04:44;;;;;;;5.60;5.10;;;24.80;41.30;;;;;;5052578;28;20219;-64
2021/07/26 00:07:09;;;;;;;5.70;5.20;;;24.80;41.40;;;;;;5051736;28;20509;-64
2021/07/26 00:09:36;;;;;;;5.70;5.20;;;24.80;41.30;;;;;;5053326;28;20339;-64
2021/07/26 00:12:04;;;;;;;5.33;4.93;;;24.80;41.30;;;;;;5052650;28;20168;-63
2021/07/26 00:14:30;;;;;;;6.60;4.97;;;24.80;41.30;;;;;;5052685;28;20768;-64
2021/07/26 00:16:55;;;;;;;5.97;5.47;;;24.80;41.30;;;;;;5052587;28;20441;-63
2021/07/26 00:19:21;;;;;;;5.80;5.40;;;24.80;41.30;;;;;;5052354;28;20199;-63
2021/07/26 00:21:46;;;;;;;5.33;5.00;;;24.80;41.40;;;;;;5052553;28;20232;-64
2021/07/26 00:24:12;;;;;;;5.67;5.20;;;24.80;41.30;;;;;;5052386;28;20526;-63
2021/07/26 00:26:37;;;;;;;5.90;5.50;;;24.70;41.20;;;;;;5052457;28;20203;-64
2021/07/26 00:29:03;;;;;;;6.07;5.57;;;24.70;41.10;;;;;;5052426;28;20191;-64
2021/07/26 00:31:28;;;;;;;5.97;5.57;;;24.70;41.20;;;;;;5052291;28;20241;-64
2021/07/26 00:34:18;;;;;;;5.60;5.10;;;24.70;41.20;;;;;;5052353;28;20701;-64
2021/07/26 00:36:48;;;;;;;5.43;5.03;;;24.70;41.20;;;;;;5051958;28;20188;-64
2021/07/26 00:39:16;;;;;;;6.20;5.70;;;24.70;41.20;;;;;;5052432;28;20936;-64
2021/07/26 00:41:43;;;;;;;5.47;5.07;;;24.70;41.20;;;;;;5052350;28;20410;-64
2021/07/26 00:44:09;;;;;;;5.60;5.20;;;24.70;41.20;;;;;;5052294;28;20411;-64
2021/07/26 00:46:34;;;;;;;5.73;5.33;;;24.70;41.30;;;;;;5051925;28;20476;-64
2021/07/26 00:49:01;;;;;;;5.43;4.93;;;24.70;41.30;;;;;;5052091;28;20251;-64
2021/07/26 00:51:27;;;;;;;5.53;5.13;;;24.70;41.30;;;;;;5051896;28;20172;-64
2021/07/26 00:53:53;;;;;;;5.80;5.40;;;24.70;41.30;;;;;;5052095;28;20473;-64
2021/07/26 00:56:19;;;;;;;5.47;5.13;;;24.70;41.30;;;;;;5051841;28;20410;-64
2021/07/26 00:58:45;;;;;;;5.30;4.90;;;24.70;41.30;;;;;;5051858;28;20441;-64
2021/07/26 01:01:13;;;;;;;4.90;4.60;;;24.70;41.30;;;;;;5051893;28;20176;-64
2021/07/26 01:03:41;;;;;;;5.20;4.90;;;24.70;41.30;;;;;;5051810;28;20491;-65
2021/07/26 01:06:06;;;;;;;4.87;4.57;;;24.70;41.30;;;;;;5052129;28;20458;-64
2021/07/26 01:08:32;;;;;;;6.17;5.63;;;24.70;41.30;;;;;;5051815;28;20437;-65
2021/07/26 01:10:57;;;;;;;5.63;5.13;;;24.60;41.30;;;;;;5051967;28;20180;-64
2021/07/26 01:13:26;;;;;;;5.80;5.30;;;24.70;41.40;;;;;;5051744;28;20599;-64
2021/07/26 01:15:52;;;;;;;4.53;4.23;;;24.60;41.30;;;;;;5051798;28;20184;-64
2021/07/26 01:18:20;;;;;;;5.83;5.33;;;24.70;41.40;;;;;;5051376;28;21054;-64
2021/07/26 01:20:48;;;;;;;5.33;4.93;;;24.70;41.40;;;;;;5052004;28;20418;-64
2021/07/26 01:23:13;;;;;;;5.43;4.93;;;24.70;41.30;;;;;;5051747;28;20503;-64
2021/07/26 01:25:39;;;;;;;7.33;5.60;;;24.60;41.10;;;;;;5051750;28;20505;-64
2021/07/26 01:28:04;;;;;;;5.30;4.90;;;24.60;41.00;;;;;;5051652;28;20187;-64
2021/07/26 01:30:31;;;;;;;5.80;5.30;;;24.60;41.00;;;;;;5051732;28;20168;-63
2021/07/26 01:32:58;;;;;;;5.37;5.03;;;24.60;40.90;;;;;;5051457;28;20198;-64
2021/07/26 01:35:24;;;;;;;6.03;5.53;;;24.60;40.90;;;;;;5051519;28;20403;-64
2021/07/26 01:37:49;;;;;;;6.00;5.60;;;24.60;40.80;;;;;;5051554;28;20432;-64
2021/07/26 01:40:16;;;;;;;6.33;5.83;;;24.60;40.90;;;;;;5051755;28;20445;-64
2021/07/26 01:42:45;;;;;;;5.90;5.50;;;24.60;40.80;;;;;;5051601;28;20620;-64
2021/07/26 01:45:11;;;;;;;5.30;4.90;;;24.60;40.80;;;;;;5051347;28;21008;-64
2021/07/26 01:47:46;;;;;;;6.13;5.40;;;24.60;40.70;;;;;;5051329;28;20482;-64
2021/07/26 01:50:12;;;;;;;4.93;4.63;;;24.60;40.70;;;;;;5051855;28;20917;-64
2021/07/26 01:52:38;;;;;;;5.90;5.40;;;24.60;40.80;;;;;;5051531;28;20407;-64
2021/07/26 01:55:05;;;;;;;6.27;5.77;;;24.60;40.70;;;;;;5051515;28;21012;-64
2021/07/26 01:57:31;;;;;;;5.23;4.80;;;24.60;40.70;;;;;;5051413;28;20247;-64
2021/07/26 01:59:57;;;;;;;5.17;4.77;;;24.60;40.70;;;;;;5051415;28;21113;-64
2021/07/26 02:02:23;;;;;;;5.50;5.20;;;24.60;40.70;;;;;;5051227;28;20407;-64
2021/07/26 02:04:50;;;;;;;5.90;5.50;;;24.60;40.70;;;;;;5051678;28;20450;-64
2021/07/26 02:07:16;;;;;;;5.80;5.40;;;24.60;40.80;;;;;;5051709;28;20500;-64
2021/07/26 02:09:41;;;;;;;5.70;5.20;;;24.60;40.70;;;;;;5051770;28;20851;-64
2021/07/26 02:12:07;;;;;;;4.90;4.60;;;24.60;40.70;;;;;;5052600;28;20597;-64
2021/07/26 02:14:33;;;;;;;5.40;5.00;;;24.60;40.70;;;;;;5051359;28;20175;-64
2021/07/26 02:16:58;;;;;;;5.40;5.00;;;24.60;40.80;;;;;;5051305;28;20180;-64
2021/07/26 02:19:24;;;;;;;5.00;4.60;;;24.60;40.90;;;;;;5051105;28;20192;-64
2021/07/26 02:21:51;;;;;;;5.50;5.10;;;24.60;41.00;;;;;;5051709;28;20182;-64
2021/07/26 02:24:16;;;;;;;5.23;4.93;;;24.50;40.90;;;;;;5051343;28;20186;-64
2021/07/26 02:26:42;;;;;;;5.43;5.07;;;24.60;41.10;;;;;;5050915;28;20466;-64
2021/07/26 02:29:08;;;;;;;4.63;4.33;;;24.50;41.00;;;;;;5051922;28;20637;-64
2021/07/26 02:31:33;;;;;;;5.20;4.80;;;24.60;41.10;;;;;;5054672;28;20358;-64
2021/07/26 02:33:59;;;;;;;4.77;4.47;;;24.50;41.10;;;;;;5054873;28;20179;-64
2021/07/26 02:36:24;;;;;;;5.30;4.90;;;24.60;41.10;;;;;;5054657;28;20176;-64
2021/07/26 02:38:50;;;;;;;5.07;4.70;;;24.50;41.00;;;;;;5054509;28;20731;-64
2021/07/26 02:41:16;;;;;;;5.40;5.10;;;24.50;41.10;;;;;;5054954;28;20172;-64
2021/07/26 02:43:42;;;;;;;5.30;4.90;;;24.50;41.00;;;;;;5054414;28;20187;-64
2021/07/26 02:46:08;;;;;;;5.97;5.37;;;24.60;41.10;;;;;;5054255;28;20875;-65
2021/07/26 02:48:35;;;;;;;5.17;4.87;;;24.50;41.10;;;;;;5054482;28;20442;-64
2021/07/26 02:51:01;;;;;;;5.60;5.20;;;24.50;41.10;;;;;;5054440;28;20846;-64
2021/07/26 02:53:26;;;;;;;5.77;5.37;;;24.50;41.10;;;;;;5054192;28;20415;-64
2021/07/26 02:55:52;;;;;;;4.77;4.47;;;24.50;41.10;;;;;;5054272;28;20553;-64
2021/07/26 02:58:17;;;;;;;5.40;5.03;;;24.50;41.10;;;;;;5054089;28;20558;-64
2021/07/26 03:00:46;;;;;;;5.53;5.13;;;24.50;41.00;;;;;;5054165;28;20195;-64
2021/07/26 03:03:11;;;;;;;4.90;4.60;;;24.50;41.00;;;;;;5054111;28;20247;-63
2021/07/26 03:05:37;;;;;;;5.20;4.90;;;24.50;40.90;;;;;;5053685;28;20470;-64
2021/07/26 03:08:02;;;;;;;5.17;4.23;;;24.50;41.00;;;;;;5054036;28;20172;-64
2021/07/26 03:10:28;;;;;;;5.00;4.60;;;24.50;41.10;;;;;;5054184;28;20203;-64
2021/07/26 03:12:54;;;;;;;5.50;5.10;;;24.50;41.10;;;;;;5053981;28;20230;-64
2021/07/26 03:15:21;;;;;;;4.73;4.43;;;24.50;41.10;;;;;;5053751;28;20230;-64
2021/07/26 03:17:47;;;;;;;4.80;4.40;;;24.50;41.20;;;;;;5053800;28;20183;-64
2021/07/26 03:20:13;;;;;;;5.50;5.10;;;24.50;41.20;;;;;;5053979;28;20417;-64
2021/07/26 03:23:02;;;;;;;5.00;4.60;;;24.50;41.20;;;;;;5053800;28;20172;-64
2021/07/26 03:25:29;;;;;;;5.70;5.30;;;24.50;41.20;;;;;;5053829;28;21026;-64
2021/07/26 03:27:55;;;;;;;5.10;4.80;;;24.50;41.20;;;;;;5053750;28;20407;-64
2021/07/26 03:30:21;;;;;;;5.00;4.60;;;24.50;41.20;;;;;;5053794;28;20402;-64
2021/07/26 03:32:48;;;;;;;5.50;5.10;;;24.50;41.20;;;;;;5054083;28;20414;-64
2021/07/26 03:35:15;;;;;;;6.03;5.63;;;24.50;41.20;;;;;;5053531;28;20407;-64
2021/07/26 03:37:40;;;;;;;5.07;4.67;;;24.50;41.20;;;;;;5053463;28;20415;-63
2021/07/26 03:40:07;;;;;;;4.63;4.33;;;24.50;41.20;;;;;;5053450;28;20453;-64
2021/07/26 03:42:42;;;;;;;5.90;5.40;;;24.50;41.20;;;;;;5053146;28;20184;-64
2021/07/26 03:45:10;;;;;;;4.53;4.23;;;24.50;41.20;;;;;;5053070;28;20962;-64
2021/07/26 03:47:36;;;;;;;5.53;5.03;;;24.50;41.20;;;;;;5053348;28;20410;-64
2021/07/26 03:50:02;;;;;;;5.07;4.73;;;24.50;41.20;;;;;;5053144;28;20418;-64
2021/07/26 03:52:27;;;;;;;5.00;4.70;;;24.50;41.20;;;;;;5053431;28;20180;-64
2021/07/26 03:54:57;;;;;;;4.53;4.23;;;24.50;41.10;;;;;;5052993;28;20187;-64
2021/07/26 03:57:23;;;;;;;5.30;4.80;;;24.50;41.20;;;;;;5053246;28;20662;-64
2021/07/26 03:59:48;;;;;;;5.30;5.00;;;24.50;41.20;;;;;;5053070;28;20515;-63
2021/07/26 04:02:14;;;;;;;4.83;4.43;;;24.50;41.20;;;;;;5053293;28;20916;-64
2021/07/26 04:04:39;;;;;;;5.63;5.23;;;24.50;41.20;;;;;;5052822;28;20560;-64
2021/07/26 04:07:11;;;;;;;4.63;4.30;;;24.50;41.10;;;;;;5052165;28;20195;-64
2021/07/26 04:09:42;;;;;;;4.60;4.20;;;24.50;41.10;;;;;;5053181;28;20188;-64
2021/07/26 04:12:11;;;;;;;5.07;4.67;;;24.50;41.10;;;;;;5053065;28;20399;-65
2021/07/26 04:14:39;;;;;;;5.70;5.20;;;24.50;41.00;;;;;;5052854;28;20472;-65
2021/07/26 04:17:05;;;;;;;5.33;4.93;;;24.50;40.90;;;;;;5050819;28;20985;-65
2021/07/26 04:19:31;;;;;;;4.97;4.67;;;24.50;41.00;;;;;;5052411;28;20438;-65
2021/07/26 04:21:57;;;;;;;5.03;4.63;;;24.50;40.90;;;;;;5052489;28;20207;-64
2021/07/26 04:24:23;;;;;;;5.60;5.20;;;24.50;40.80;;;;;;5051631;28;20422;-65
2021/07/26 04:26:49;;;;;;;5.33;5.03;;;24.50;40.80;;;;;;5052407;28;20832;-67
2021/07/26 04:29:15;;;;;;;5.23;4.87;;;24.50;40.80;;;;;;5052573;28;20441;-69
2021/07/26 04:31:41;;;;;;;5.57;5.17;;;24.50;41.50;;;;;;5052866;28;20635;-65
2021/07/26 04:34:07;;;;;;;5.67;5.27;;;24.50;40.80;;;;;;5052242;28;20877;-65
2021/07/26 04:36:32;;;;;;;5.30;4.90;;;24.50;40.80;;;;;;5052129;28;20447;-66
2021/07/26 04:38:58;;;;;;;5.30;5.00;;;24.50;40.70;;;;;;5050784;28;20203;-65
2021/07/26 04:41:23;;;;;;;5.73;5.33;;;24.50;40.80;;;;;;5034039;28;20180;-68
2021/07/26 04:43:49;;;;;;;5.20;4.90;;;24.50;40.80;;;;;;5033531;28;20185;-65
2021/07/26 04:46:14;;;;;;;4.70;4.33;;;24.50;40.90;;;;;;5032725;28;20239;-66
2021/07/26 04:48:40;;;;;;;6.50;5.40;;;24.50;40.90;;;;;;5032006;28;20200;-65
2021/07/26 04:51:05;;;;;;;9.43;4.83;;;24.40;40.90;;;;;;5032044;28;20204;-66
2021/07/26 04:53:34;;;;;;;8.23;4.80;;;24.50;41.00;;;;;;5031722;28;20550;-66
2021/07/26 04:56:00;;;;;;;4.97;4.57;;;24.50;41.10;;;;;;5031877;28;20177;-65
2021/07/26 04:58:26;;;;;;;5.20;4.80;;;24.50;41.20;;;;;;5040425;28;20448;-66
2021/07/26 05:00:51;;;;;;;5.27;4.77;;;24.50;41.20;;;;;;5051440;28;20216;-66
2021/07/26 05:03:17;;;;;;;4.70;4.40;;;24.50;41.30;;;;;;5051580;28;20567;-65
2021/07/26 05:05:42;;;;;;;5.47;5.00;;;24.40;41.20;;;;;;5051490;28;20345;-66
2021/07/26 05:08:08;;;;;;;4.80;4.40;;;24.50;41.10;;;;;;5051973;28;20199;-67
2021/07/26 05:10:34;;;;;;;5.33;4.97;;;24.50;40.80;;;;;;5051876;28;20178;-64
2021/07/26 05:12:59;;;;;;;5.60;5.13;;;24.50;40.50;;;;;;5051716;28;20646;-64
2021/07/26 05:15:25;;;;;;;5.63;5.13;;;24.50;40.30;;;;;;5051820;28;20889;-64
2021/07/26 05:17:51;;;;;;;5.80;5.30;;;24.40;40.00;;;;;;5053310;28;20251;-67
2021/07/26 05:20:16;;;;;;;5.17;4.87;;;24.50;39.90;;;;;;5057284;28;20167;-69
2021/07/26 05:22:42;;;;;;;6.10;5.50;;;24.50;39.70;;;;;;5052849;28;20176;-67
2021/07/26 05:25:08;;;;;;;5.50;5.00;;;24.40;39.60;;;;;;5051739;28;20556;-66
2021/07/26 05:27:35;;;;;;;5.40;5.00;;;24.40;39.50;;;;;;5051223;28;20259;-63
2021/07/26 05:30:02;;;;;;;5.30;4.77;;;24.40;39.30;;;;;;5051562;28;20422;-64
2021/07/26 05:32:28;;;;;;;6.43;5.80;;;24.40;39.30;;;;;;5051665;28;20437;-64
2021/07/26 05:34:53;;;;;;;8.00;6.13;;;24.40;39.30;;;;;;5051715;28;20836;-64
2021/07/26 05:37:19;;;;;;;6.60;5.40;;;24.40;39.20;;;;;;5051771;28;20544;-64
2021/07/26 05:39:44;;;;;;;8.13;5.50;;;24.40;39.20;;;;;;5051794;28;20238;-65
2021/07/26 05:42:11;;;;;;;5.93;5.33;;;24.40;39.20;;;;;;5051280;28;20176;-64
2021/07/26 05:44:43;;;;;;;6.70;5.90;;;24.40;39.10;;;;;;5050275;28;20529;-64
2021/07/26 05:47:10;;;;;;;5.70;5.20;;;24.40;39.00;;;;;;5050552;28;20992;-64
2021/07/26 05:49:36;;;;;;;6.00;5.40;;;24.40;39.00;;;;;;5051496;28;20431;-64
2021/07/26 05:52:02;;;;;;;10.00;5.20;;;24.30;38.90;;;;;;5051268;28;20411;-65
2021/07/26 05:54:28;;;;;;;6.40;5.70;;;24.40;39.00;;;;;;5051135;28;20410;-64
2021/07/26 05:56:53;;;;;;;6.10;5.50;;;24.30;38.90;;;;;;5051143;28;20493;-64
2021/07/26 05:59:19;;;;;;;5.57;5.07;;;24.30;38.90;;;;;;5050970;28;20203;-65
2021/07/26 06:01:48;;;;;;;5.43;4.70;;;24.30;38.70;;;;;;5051091;28;20168;-64
2021/07/26 06:04:18;;;;;;;6.17;5.57;;;24.30;38.70;;;;;;5052148;28;20422;-65
2021/07/26 06:06:46;;;;;;;5.23;4.83;;;24.30;38.70;;;;;;5054846;28;20516;-65
2021/07/26 06:09:12;;;;;;;5.67;4.77;;;24.30;38.80;;;;;;5054692;28;20422;-65
2021/07/26 06:11:38;;;;;;;5.37;4.97;;;24.30;38.70;;;;;;5055034;28;20416;-65
2021/07/26 06:14:04;;;;;;;4.70;4.30;;;24.30;38.80;;;;;;5054753;28;20225;-65
2021/07/26 06:16:30;;;;;;;5.30;4.83;;;24.30;38.90;;;;;;5054645;28;20446;-64
2021/07/26 06:18:56;;;;;;;5.67;5.17;;;24.30;38.90;;;;;;5054877;28;20441;-65
2021/07/26 06:21:22;;;;;;;5.93;4.97;;;24.30;38.90;;;;;;5054900;28;20639;-65
2021/07/26 06:23:47;;;;;;;5.80;5.30;;;24.30;38.80;;;;;;5054662;28;20421;-64
2021/07/26 06:26:13;;;;;;;4.87;4.33;;;24.30;38.60;;;;;;5054350;28;20211;-64
2021/07/26 06:28:38;;;;;;;4.93;4.60;;;24.30;38.50;;;;;;5054477;28;20188;-64
2021/07/26 06:31:06;;;;;;;5.30;4.90;;;24.30;38.40;;;;;;5054469;28;20176;-64
2021/07/26 06:33:31;;;;;;;7.07;4.77;;;24.30;38.50;;;;;;5054507;28;20207;-64
2021/07/26 06:35:57;;;;;;;4.97;4.57;;;24.30;38.50;;;;;;5054341;28;20449;-64
2021/07/26 06:38:23;;;;;;;4.97;4.53;;;24.30;38.50;;;;;;5054300;28;20196;-64
2021/07/26 06:40:48;;;;;;;5.33;4.93;;;24.30;38.50;;;;;;5054302;28;20168;-64
2021/07/26 06:43:15;;;;;;;4.93;4.53;;;24.30;38.50;;;;;;5052523;28;20179;-66
2021/07/26 06:45:41;;;;;;;7.10;4.80;;;24.30;38.30;;;;;;5054223;28;20222;-66
2021/07/26 06:48:06;;;;;;;4.90;4.60;;;24.30;38.30;;;;;;5052852;28;20431;-66
2021/07/26 06:50:32;;;;;;;7.23;4.93;;;24.20;38.20;;;;;;5053867;28;20187;-66
2021/07/26 06:52:57;;;;;;;5.20;4.70;;;24.20;38.50;;;;;;5052521;28;20176;-66
2021/07/26 06:55:23;;;;;;;4.90;4.50;;;24.30;38.80;;;;;;5053768;28;20176;-66
2021/07/26 06:57:48;;;;;;;5.10;4.80;;;24.20;38.80;;;;;;5053793;28;20168;-65
2021/07/26 07:00:14;;;;;;;4.43;4.03;;;24.30;39.00;;;;;;5053707;28;20168;-65
2021/07/26 07:02:40;;;;;;;7.10;5.50;;;24.30;39.20;;;;;;5053591;28;20180;-66
2021/07/26 07:05:06;;;;;;;4.93;4.53;;;24.30;39.20;;;;;;5053826;28;20426;-66
2021/07/26 07:07:31;;;;;;;4.90;4.60;;;24.30;39.30;;;;;;5053694;28;20207;-66
2021/07/26 07:09:57;;;;;;;4.70;4.30;;;24.20;39.20;;;;;;5053750;28;20199;-65
2021/07/26 07:12:22;;;;;;;5.00;4.60;;;24.30;39.40;;;;;;5053722;28;20251;-65
2021/07/26 07:14:48;;;;;;;5.10;4.60;;;24.30;39.40;;;;;;5053323;28;20194;-66
2021/07/26 07:17:13;;;;;;;5.23;4.83;;;24.30;39.40;;;;;;5053634;28;20176;-66
2021/07/26 07:19:43;;;;;;;5.30;4.90;;;24.30;39.40;;;;;;5053690;28;20188;-66
2021/07/26 07:22:09;;;;;;;5.70;4.87;;;24.30;40.10;;;;;;5053671;28;20230;-66
2021/07/26 07:24:34;;;;;;;4.97;4.57;;;24.30;39.30;;;;;;5053332;28;20410;-66
2021/07/26 07:27:00;;;;;;;5.90;5.40;;;24.30;39.30;;;;;;5053355;28;20203;-66
2021/07/26 07:29:25;;;;;;;4.80;4.47;;;24.30;39.20;;;;;;5053162;28;20719;-65
2021/07/26 07:31:51;;;;;;;5.03;4.73;;;24.40;39.30;;;;;;5053322;28;20173;-66
2021/07/26 07:34:16;;;;;;;4.93;4.53;;;24.30;39.20;;;;;;5053314;28;20176;-66
2021/07/26 07:36:43;;;;;;;5.17;4.67;;;24.30;39.00;;;;;;5053133;28;20548;-66
2021/07/26 07:39:09;;;;;;;5.07;4.67;;;24.40;39.00;;;;;;5053005;28;20199;-65
2021/07/26 07:41:34;;;;;;;5.87;5.37;;;24.40;39.00;;;;;;5053136;28;20807;-66
2021/07/26 07:44:00;;;;;;;4.87;4.57;;;24.40;39.00;;;;;;5052872;28;20191;-66
2021/07/26 07:46:26;;;;;;;4.37;4.10;;;24.40;39.00;;;;;;5052755;28;20207;-66
2021/07/26 07:48:52;;;;;;;4.33;3.80;;;24.50;39.20;;;;;;5052544;28;20438;-66
2021/07/26 07:51:18;;;;;;;4.40;4.10;;;24.40;39.00;;;;;;5049651;28;20638;-66
2021/07/26 07:53:44;;;;;;;4.90;4.50;;;24.40;39.00;;;;;;5052939;28;20191;-66
2021/07/26 07:56:10;;;;;;;5.83;4.23;;;24.40;39.10;;;;;;5052559;28;20501;-66
2021/07/26 07:58:36;;;;;;;6.70;4.50;;;24.40;39.20;;;;;;5052109;28;20521;-66
2021/07/26 08:01:03;;;;;;;4.90;3.97;;;24.50;39.10;;;;;;5053015;28;20219;-66
2021/07/26 08:03:29;;;;;;;5.30;4.80;;;24.50;39.10;;;;;;5052438;28;20180;-67
2021/07/26 08:05:55;;;;;;;3.30;3.10;;;24.50;39.10;;;;;;5051882;28;20484;-67
2021/07/26 08:08:21;;;;;;;4.70;4.30;;;24.50;39.10;;;;;;5053027;28;20555;-67
2021/07/26 08:10:47;;;;;;;4.97;4.57;;;24.50;38.90;;;;;;5052350;28;20410;-66
2021/07/26 08:13:22;;;;;;;4.03;3.73;;;24.60;38.90;;;;;;5052465;28;20407;-66
2021/07/26 08:15:55;;;;;;;4.70;4.40;;;24.60;38.70;;;;;;5052075;28;20695;-66
2021/07/26 08:18:21;;;;;;;4.53;4.13;;;24.60;38.70;;;;;;5052553;28;20441;-66
2021/07/26 08:20:47;;;;;;;5.20;4.80;;;24.60;38.70;;;;;;5052421;28;20509;-66
2021/07/26 08:23:13;;;;;;;4.23;3.97;;;24.60;38.70;;;;;;5052652;28;20497;-67
2021/07/26 08:25:39;;;;;;;4.30;4.03;;;24.60;38.70;;;;;;5052060;28;20203;-66
2021/07/26 08:28:05;;;;;;;4.13;3.83;;;24.60;39.40;;;;;;5051027;28;20411;-66
2021/07/26 08:30:33;;;;;;;4.43;4.03;;;24.60;38.70;;;;;;5051379;28;20183;-66
2021/07/26 08:33:00;;;;;;;4.27;3.97;;;24.60;38.80;;;;;;5052098;28;20929;-66
2021/07/26 08:35:25;;;;;;;4.30;3.90;;;24.60;38.80;;;;;;5051951;28;20881;-66
2021/07/26 08:37:52;;;;;;;4.80;4.40;;;24.60;38.80;;;;;;5051667;28;20406;-66
2021/07/26 08:40:19;;;;;;;4.97;4.57;;;24.60;38.70;;;;;;5052040;28;20175;-65
2021/07/26 08:42:45;;;;;;;4.37;4.07;;;24.60;38.70;;;;;;5051754;28;20406;-66
2021/07/26 08:45:11;;;;;;;4.23;3.93;;;24.60;38.70;;;;;;5051894;28;20402;-66
2021/07/26 08:47:45;;;;;;;5.43;5.07;;;24.60;38.70;;;;;;5051976;28;20175;-65
2021/07/26 08:50:12;;;;;;;4.37;4.07;;;24.60;38.70;;;;;;5051727;28;20658;-66
2021/07/26 08:52:43;;;;;;;4.60;4.20;;;24.60;38.70;;;;;;5051387;28;20424;-67
2021/07/26 08:55:14;;;;;;;4.73;4.33;;;24.60;38.60;;;;;;5049087;28;20411;-71
2021/07/26 08:57:41;;;;;;;5.27;4.77;;;24.60;38.60;;;;;;5053141;28;20468;-70
2021/07/26 09:00:08;;;;;;;4.30;4.00;;;24.60;38.50;;;;;;5050904;28;20425;-67
2021/07/26 09:02:33;;;;;;;4.30;4.00;;;24.60;38.50;;;;;;5050374;28;20461;-65
2021/07/26 09:04:59;;;;;;;4.10;3.83;;;24.60;38.60;;;;;;5052425;28;20827;-66
2021/07/26 09:07:26;;;;;;;4.67;4.33;;;24.70;38.80;;;;;;5052210;28;20208;-65
2021/07/26 09:09:52;;;;;;;4.70;4.30;;;24.60;38.70;;;;;;5052176;28;20246;-67
2021/07/26 09:12:31;;;;;;;4.63;4.23;;;24.60;38.80;;;;;;5051591;28;20787;-67
2021/07/26 09:14:58;;;;;;;4.90;4.50;;;24.60;38.80;;;;;;5050981;28;20662;-67
2021/07/26 09:17:24;;;;;;;4.73;4.37;;;24.60;38.80;;;;;;5051777;28;20415;-67
2021/07/26 09:19:59;;;;;;;4.23;3.93;;;24.60;38.80;;;;;;5051362;28;20441;-67
2021/07/26 09:22:33;;;;;;;5.50;4.60;;;24.60;38.80;;;;;;5050848;28;20168;-67
2021/07/26 09:25:26;;;;;;;5.57;4.67;;;24.70;38.90;;;;;;5051296;28;20768;-67
2021/07/26 09:28:10;;;;;;;4.33;4.03;;;24.70;38.90;;;;;;5051119;28;20751;-67
2021/07/26 09:30:47;;;;;;;4.90;4.50;;;24.60;38.80;;;;;;5051635;28;20399;-68
2021/07/26 09:33:26;;;;;;;4.53;4.23;;;24.70;38.70;;;;;;5052320;28;20473;-67
2021/07/26 09:36:14;;;;;;;4.87;4.57;;;24.70;38.70;;;;;;5050920;28;20410;-69
2021/07/26 09:38:53;;;;;;;4.97;4.60;;;24.70;38.70;;;;;;5053894;28;20520;-69
2021/07/26 09:41:41;;;;;;;4.43;4.10;;;24.70;38.70;;;;;;5055491;28;20414;-68
2021/07/26 09:44:07;;;;;;;4.27;3.97;;;24.80;38.70;;;;;;5054835;28;20399;-69
2021/07/26 09:46:32;;;;;;;4.33;3.97;;;24.80;38.70;;;;;;5054939;28;20469;-68
2021/07/26 09:49:19;;;;;;;4.60;4.30;;;24.80;38.80;;;;;;5054864;28;20541;-68
2021/07/26 09:52:05;;;;;;;4.30;3.90;;;24.80;38.60;;;;;;5054968;28;20259;-68
2021/07/26 09:54:44;;;;;;;5.17;4.77;;;24.80;38.80;;;;;;5054834;28;20917;-67
2021/07/26 09:57:23;;;;;;;4.60;4.30;;;24.70;38.80;;;;;;5053521;28;20841;-67
2021/07/26 09:59:50;;;;;;;4.10;3.73;;;24.80;38.80;;;;;;5054975;28;20797;-67
2021/07/26 10:02:20;;;;;;;4.83;4.17;;;24.80;38.80;;;;;;5055121;28;20414;-68
2021/07/26 10:04:47;;;;;;;4.57;4.17;;;24.80;38.80;;;;;;5054212;28;20418;-67
2021/07/26 10:07:17;;;;;;;5.10;4.70;;;24.80;38.80;;;;;;5055045;28;20827;-66
2021/07/26 10:09:45;;;;;;;4.60;4.30;;;24.80;38.80;;;;;;5054675;28;20457;-68
2021/07/26 10:12:15;;;;;;;4.77;4.37;;;24.80;39.10;;;;;;5054350;28;20426;-66
2021/07/26 10:14:42;;;;;;;3.77;3.53;;;24.90;38.70;;;;;;5053889;28;20418;-68
2021/07/26 10:17:08;;;;;;;5.07;4.67;;;24.80;38.50;;;;;;5054828;28;20406;-67
2021/07/26 10:19:34;;;;;;;4.30;4.00;;;24.80;38.40;;;;;;5054085;28;20472;-67
2021/07/26 10:22:06;;;;;;;4.73;4.40;;;24.80;38.40;;;;;;5054095;28;20467;-69
2021/07/26 10:24:46;;;;;;;5.00;4.60;;;24.80;38.30;;;;;;5054885;28;20418;-69
2021/07/26 10:27:18;;;;;;;4.47;4.17;;;24.80;38.30;;;;;;5054129;28;20458;-66
2021/07/26 10:29:54;;;;;;;4.40;4.00;;;24.80;38.40;;;;;;5054607;28;20472;-66
2021/07/26 10:32:32;;;;;;;4.30;3.90;;;24.80;38.30;;;;;;5054636;28;20403;-66
2021/07/26 10:34:59;;;;;;;5.27;4.77;;;24.80;38.30;;;;;;5053975;28;20425;-66
2021/07/26 10:37:39;;;;;;;4.20;3.90;;;24.80;38.30;;;;;;5054377;28;20407;-66
2021/07/26 10:40:28;;;;;;;4.40;4.10;;;24.90;38.30;;;;;;5054175;28;20473;-66
2021/07/26 10:42:58;;;;;;;4.67;4.37;;;24.90;38.30;;;;;;5054038;28;20544;-66
2021/07/26 10:45:35;;;;;;;11.50;4.60;;;24.80;38.20;;;;;;5054016;28;20407;-67
2021/07/26 10:48:22;;;;;;;4.27;3.97;;;24.90;38.40;;;;;;5054051;28;20417;-66
2021/07/26 10:50:52;;;;;;;4.20;4.00;;;24.80;38.30;;;;;;5053348;28;20456;-66
2021/07/26 10:53:36;;;;;;;4.70;4.40;;;24.90;38.30;;;;;;5054308;28;20936;-67
2021/07/26 10:56:06;;;;;;;4.90;4.60;;;24.90;38.20;;;;;;5053971;28;20456;-67
2021/07/26 10:58:38;;;;;;;4.60;4.30;;;24.90;38.20;;;;;;5053563;28;20426;-66
2021/07/26 11:01:26;;;;;;;4.43;4.13;;;24.90;38.10;;;;;;5054077;28;20693;-66
2021/07/26 11:03:52;;;;;;;3.90;3.70;;;24.90;38.10;;;;;;5053314;28;20464;-67
2021/07/26 11:06:36;;;;;;;4.30;4.00;;;24.90;38.10;;;;;;5053488;28;20466;-66
2021/07/26 11:09:24;;;;;;;3.93;3.63;;;24.90;38.10;;;;;;5053914;28;20432;-67
2021/07/26 11:11:53;;;;;;;3.60;3.40;;;24.90;38.10;;;;;;5053997;28;20496;-66
2021/07/26 11:14:20;;;;;;;4.40;4.10;;;24.90;38.10;;;;;;5054041;28;20418;-69
2021/07/26 11:17:11;;;;;;;5.77;4.07;;;24.90;38.00;;;;;;5053696;28;20419;-66
2021/07/26 11:19:52;;;;;;;3.97;3.67;;;24.90;38.00;;;;;;5053638;28;20452;-66
2021/07/26 11:22:21;;;;;;;4.53;4.13;;;24.90;38.00;;;;;;5053752;28;20410;-66
2021/07/26 11:24:49;;;;;;;3.80;3.60;;;24.90;37.90;;;;;;5053155;28;20446;-66
2021/07/26 11:27:17;;;;;;;4.77;4.37;;;24.90;37.90;;;;;;5053583;28;20461;-67
2021/07/26 11:29:53;;;;;;;4.27;3.93;;;24.90;37.90;;;;;;5053082;28;20458;-66
2021/07/26 11:32:23;;;;;;;4.60;4.30;;;24.90;37.80;;;;;;5053563;28;20837;-65
2021/07/26 11:34:59;;;;;;;4.50;4.20;;;24.90;37.80;;;;;;5053093;28;21020;-65
2021/07/26 11:37:31;;;;;;;3.90;3.60;;;24.90;37.80;;;;;;5052285;28;20784;-66
2021/07/26 11:40:04;;;;;;;4.10;3.80;;;24.90;37.70;;;;;;5053467;28;20426;-67
2021/07/26 11:42:31;;;;;;;4.70;4.40;;;25.00;37.90;;;;;;5053859;28;20418;-66
2021/07/26 11:45:01;;;;;;;4.43;4.03;;;24.90;37.70;;;;;;5053118;28;20908;-66
2021/07/26 11:47:32;;;;;;;4.10;3.80;;;24.90;37.80;;;;;;5052920;28;20450;-66
2021/07/26 11:49:58;;;;;;;4.27;3.97;;;24.90;37.70;;;;;;5053155;28;20415;-65
2021/07/26 11:52:24;;;;;;;4.47;4.17;;;24.90;37.80;;;;;;5053190;28;20417;-65
2021/07/26 11:54:49;;;;;;;4.40;4.20;;;24.90;37.70;;;;;;5052954;28;20407;-65
2021/07/26 11:57:15;;;;;;;5.17;3.93;;;24.90;37.70;;;;;;5053103;28;20172;-66
2021/07/26 11:59:54;;;;;;;10.20;4.97;;;25.00;37.70;;;;;;5052710;28;20266;-65
2021/07/26 12:02:19;;;;;;;5.10;4.70;;;25.00;37.70;;;;;;5052867;28;20249;-65
2021/07/26 12:04:45;;;;;;;5.40;4.90;;;25.00;37.70;;;;;;5052647;28;20920;-66
2021/07/26 12:07:11;;;;;;;6.57;5.03;;;25.00;37.70;;;;;;5053039;28;20223;-66
2021/07/26 12:09:48;;;;;;;4.97;4.47;;;25.00;37.70;;;;;;5053054;28;20203;-65
2021/07/26 12:12:15;;;;;;;5.00;4.60;;;25.00;37.80;;;;;;5052748;28;20246;-65
2021/07/26 12:14:43;;;;;;;7.47;4.47;;;25.00;37.90;;;;;;5050467;28;20426;-66
2021/07/26 12:17:22;;;;;;;4.20;3.80;;;25.00;37.90;;;;;;5052022;28;20800;-65
2021/07/26 12:19:59;;;;;;;4.37;3.97;;;25.00;37.90;;;;;;5052391;28;20442;-65
2021/07/26 12:22:24;;;;;;;4.63;4.20;;;25.00;38.00;;;;;;5051224;28;20464;-65
2021/07/26 12:25:00;;;;;;;4.87;4.57;;;25.00;38.00;;;;;;5051989;28;20822;-65
2021/07/26 12:27:33;;;;;;;5.53;5.03;;;25.00;38.00;;;;;;5052385;28;20218;-66
2021/07/26 12:30:13;;;;;;;5.50;5.00;;;25.00;38.00;;;;;;5053038;28;20434;-65
2021/07/26 12:32:52;;;;;;;6.60;5.20;;;25.00;38.10;;;;;;5052292;28;20783;-65
2021/07/26 12:35:18;;;;;;;6.03;5.50;;;24.90;38.20;;;;;;5049755;28;20424;-66
2021/07/26 12:38:02;;;;;;;11.10;6.50;;;25.00;38.50;;;;;;5050327;28;20411;-66
2021/07/26 12:40:29;;;;;;;7.00;6.13;;;24.90;38.70;;;;;;5052630;28;20646;-66
2021/07/26 12:43:16;;;;;;;6.70;6.03;;;25.00;38.70;;;;;;5051677;28;20394;-65
2021/07/26 12:45:55;;;;;;;8.80;7.10;;;24.90;38.80;;;;;;5051556;28;20465;-66
2021/07/26 12:48:22;;;;;;;7.93;6.20;;;24.90;38.90;;;;;;5052138;28;20823;-65
2021/07/26 12:50:49;;;;;;;7.00;5.30;;;24.90;38.90;;;;;;5051204;28;20537;-65
2021/07/26 12:53:14;;;;;;;6.37;5.77;;;24.90;39.00;;;;;;5051817;28;20399;-65